KCLE/CLE METAR and TAF weather

Enter ICAO airport designator
Station Type Date Time Source
KCLE METAR 2020/02/20 22:51 UTC NOAA

KCLE 202251Z 33008KT 9SM -SN BKN034 M06/M14 A3057 RMK AO2 SLP364 P0000 T10561139


Station Type Date Time Source
KCLE Decoded METAR 2020/02/20 22:51 UTC NOAA

CLEVELAND-HOPKINS INTERNATIONAL , OH, United States (KCLE) 41-24N 081-51W 236M
Feb 20, 2020 - 05:51 PM EST / 2020.02.20 2251 UTC
Wind: from the NNW (330 degrees) at 9 MPH (8 KT):0
Visibility: 9 mile(s):0
Sky conditions: mostly cloudy
Weather: light snow
Precipitation last hour: A trace
Temperature: 21.9 F (-5.6 C)
Windchill: 12 F (-11 C):1
Dew Point: 7.0 F (-13.9 C)
Relative Humidity: 51%
Pressure (altimeter): 30.57 in. Hg (1035 hPa)
ob: KCLE 202251Z 33008KT 9SM -SN BKN034 M06/M14 A3057 RMK AO2 SLP364 P0000 T10561139
cycle: 23

Station Type Date Time Source
KCLE TAF 2020/02/20 21:45 UTC NOAA

TAF
AMD KCLE 202042Z 2021/2124 34009KT P6SM BKN035
TEMPO 2021/2023 BKN030
FM202300 34009KT P6SM SCT035
TEMPO 2023/2101 BKN035
FM210200 31004KT P6SM SCT250
FM211500 25009KT P6SM SKC

Example: see airport list